createdAt,value
2023-03-13T00:01:38.855Z,100.00
2023-03-13T00:04:06.219Z,100.00
2023-03-13T00:06:37.941Z,100.00
2023-03-13T00:09:07.622Z,100.00
2023-03-13T00:11:34.882Z,100.00
2023-03-13T00:14:03.420Z,100.00
2023-03-13T00:16:30.974Z,100.00
2023-03-13T00:18:58.610Z,100.00
2023-03-13T00:21:27.605Z,100.00
2023-03-13T00:23:54.863Z,100.00
2023-03-13T00:26:22.925Z,100.00
2023-03-13T00:28:51.009Z,100.00
2023-03-13T00:31:24.193Z,100.00
2023-03-13T00:33:54.726Z,100.00
2023-03-13T00:36:27.878Z,100.00
2023-03-13T00:38:55.740Z,100.00
2023-03-13T00:41:27.786Z,100.00
2023-03-13T00:43:54.980Z,100.00
2023-03-13T00:46:23.306Z,100.00
2023-03-13T00:48:50.954Z,100.00
2023-03-13T00:51:19.173Z,100.00
2023-03-13T00:53:46.828Z,100.00
2023-03-13T00:56:15.592Z,100.00
2023-03-13T00:58:44.614Z,100.00
2023-03-13T01:01:26.360Z,100.00
2023-03-13T01:04:00.323Z,100.00
2023-03-13T01:06:29.100Z,100.00
2023-03-13T01:08:58.082Z,100.00
2023-03-13T01:11:28.324Z,100.00
2023-03-13T01:14:00.696Z,100.00
2023-03-13T01:16:30.081Z,100.00
2023-03-13T01:19:00.743Z,100.00
2023-03-13T01:21:28.640Z,100.00
2023-03-13T01:23:56.443Z,100.00
2023-03-13T01:26:24.318Z,100.00
2023-03-13T01:28:51.545Z,100.00
2023-03-13T01:31:19.858Z,100.00
2023-03-13T01:33:48.321Z,100.00
2023-03-13T01:36:17.238Z,100.00
2023-03-13T01:38:44.003Z,100.00
2023-03-13T01:41:12.555Z,100.00
2023-03-13T01:43:39.212Z,100.00
2023-03-13T01:46:18.514Z,100.00
2023-03-13T01:49:04.076Z,100.00
2023-03-13T01:51:40.028Z,100.00
2023-03-13T01:54:11.790Z,100.00
2023-03-13T01:57:02.011Z,100.00
2023-03-13T01:59:33.665Z,100.00
2023-03-13T02:02:03.135Z,100.00
2023-03-13T02:04:44.300Z,100.00
2023-03-13T02:07:17.081Z,100.00
2023-03-13T02:09:51.180Z,100.00
2023-03-13T02:12:24.366Z,100.00
2023-03-13T02:14:52.591Z,100.00
2023-03-13T02:17:20.442Z,100.00
2023-03-13T02:19:48.818Z,100.00
2023-03-13T02:22:34.299Z,100.00
2023-03-13T02:25:11.696Z,100.00
2023-03-13T02:27:39.454Z,100.00
2023-03-13T02:30:09.800Z,100.00
2023-03-13T02:32:37.346Z,100.00
2023-03-13T02:35:11.508Z,100.00
2023-03-13T02:37:41.990Z,100.00
2023-03-13T02:40:18.279Z,100.00
2023-03-13T02:42:47.724Z,100.00
2023-03-13T02:45:15.976Z,100.00
2023-03-13T02:47:44.072Z,100.00
2023-03-13T02:50:13.574Z,100.00
2023-03-13T02:52:45.377Z,100.00
2023-03-13T02:55:22.602Z,100.00
2023-03-13T02:57:50.361Z,100.00
2023-03-13T03:00:17.773Z,100.00
2023-03-13T03:02:45.500Z,100.00
2023-03-13T03:05:12.863Z,100.00
2023-03-13T03:07:39.906Z,100.00
2023-03-13T03:10:08.106Z,100.00
2023-03-13T03:12:35.596Z,100.00
2023-03-13T03:15:04.917Z,100.00
2023-03-13T03:17:33.768Z,100.00
2023-03-13T03:20:00.496Z,100.00
2023-03-13T03:22:27.276Z,100.00
2023-03-13T03:24:54.036Z,100.00
2023-03-13T03:27:20.956Z,100.00
2023-03-13T03:29:52.660Z,100.00
2023-03-13T03:32:21.279Z,100.00
2023-03-13T03:34:48.056Z,100.00
2023-03-13T03:37:14.788Z,100.00
2023-03-13T03:39:41.614Z,100.00
2023-03-13T03:42:09.687Z,100.00
2023-03-13T03:44:37.619Z,100.00
2023-03-13T03:47:05.336Z,100.00
2023-03-13T03:49:36.183Z,100.00
2023-03-13T03:52:02.963Z,100.00
2023-03-13T03:54:35.173Z,100.00
2023-03-13T03:57:02.609Z,100.00
2023-03-13T03:59:29.356Z,100.00
2023-03-13T04:01:58.152Z,100.00
2023-03-13T04:04:27.342Z,100.00
2023-03-13T04:07:01.589Z,100.00
2023-03-13T04:09:32.040Z,100.00
2023-03-13T04:12:00.719Z,100.00
2023-03-13T04:14:28.219Z,100.00
2023-03-13T04:16:55.402Z,100.00
2023-03-13T04:19:23.379Z,100.00
2023-03-13T04:21:50.613Z,100.00
2023-03-13T04:24:19.158Z,100.00
2023-03-13T04:26:46.096Z,100.00
2023-03-13T04:29:14.331Z,100.00
2023-03-13T04:31:50.171Z,100.00
2023-03-13T04:34:45.324Z,100.00
2023-03-13T04:37:38.459Z,100.00
2023-03-13T04:40:26.208Z,100.00
2023-03-13T04:43:12.275Z,100.00
2023-03-13T04:45:56.295Z,100.00
2023-03-13T04:48:41.959Z,100.00
2023-03-13T04:51:24.030Z,100.00
2023-03-13T04:54:11.796Z,100.00
2023-03-13T04:56:45.487Z,100.00
2023-03-13T04:59:32.454Z,100.00
2023-03-13T05:02:05.715Z,100.00
2023-03-13T05:04:45.564Z,100.00
2023-03-13T05:07:50.553Z,100.00
2023-03-13T05:10:20.209Z,100.00
2023-03-13T05:13:06.861Z,100.00
2023-03-13T05:15:50.279Z,100.00
2023-03-13T05:18:36.153Z,100.00
2023-03-13T05:21:26.275Z,100.00
2023-03-13T05:24:05.484Z,100.00
2023-03-13T05:26:50.357Z,100.00
2023-03-13T05:29:43.351Z,100.00
2023-03-13T05:32:17.666Z,100.00
2023-03-13T05:34:44.424Z,100.00
2023-03-13T05:37:25.347Z,100.00
2023-03-13T05:40:30.394Z,100.00
2023-03-13T05:43:26.244Z,100.00
2023-03-13T05:45:53.009Z,100.00
2023-03-13T05:48:46.913Z,100.00
2023-03-13T05:51:32.719Z,100.00
2023-03-13T05:54:19.861Z,100.00
2023-03-13T05:56:55.214Z,100.00
2023-03-13T05:59:44.852Z,100.00
2023-03-13T06:02:34.563Z,100.00
2023-03-13T06:05:03.500Z,100.00
2023-03-13T06:07:30.248Z,100.00
2023-03-13T06:09:57.783Z,100.00
2023-03-13T06:12:24.523Z,100.00
2023-03-13T06:14:51.341Z,100.00
2023-03-13T06:17:25.696Z,100.00
2023-03-13T06:19:52.543Z,100.00
2023-03-13T06:22:19.373Z,100.00
2023-03-13T06:24:48.931Z,100.00
2023-03-13T06:27:16.803Z,100.00
2023-03-13T06:29:43.550Z,100.00
2023-03-13T06:32:11.144Z,100.00
2023-03-13T06:34:38.151Z,100.00
2023-03-13T06:37:05.354Z,100.00
2023-03-13T06:39:32.200Z,100.00
2023-03-13T06:41:59.647Z,100.00
2023-03-13T06:44:26.988Z,100.00
2023-03-13T06:46:54.100Z,100.00
2023-03-13T06:49:21.010Z,100.00
2023-03-13T06:51:47.716Z,100.00
2023-03-13T06:54:14.470Z,100.00
2023-03-13T06:56:41.230Z,100.00
2023-03-13T06:59:08.055Z,100.00
2023-03-13T07:01:34.910Z,100.00
2023-03-13T07:04:01.932Z,100.00
2023-03-13T07:06:28.807Z,100.00
2023-03-13T07:08:55.653Z,100.00
2023-03-13T07:11:22.371Z,100.00
2023-03-13T07:13:49.112Z,100.00
2023-03-13T07:16:16.607Z,100.00
2023-03-13T07:18:44.811Z,100.00
2023-03-13T07:21:12.370Z,100.00
2023-03-13T07:23:39.552Z,100.00
2023-03-13T07:26:15.088Z,100.00
2023-03-13T07:28:42.821Z,100.00
2023-03-13T07:31:15.905Z,100.00
2023-03-13T07:33:43.232Z,100.00
2023-03-13T07:36:10.971Z,100.00
2023-03-13T07:38:37.960Z,100.00
2023-03-13T07:41:05.561Z,100.00
2023-03-13T07:43:32.894Z,100.00
2023-03-13T07:46:04.135Z,100.00
2023-03-13T07:48:34.263Z,100.00
2023-03-13T07:51:01.854Z,100.00
2023-03-13T07:53:28.925Z,100.00
2023-03-13T07:56:01.939Z,100.00
2023-03-13T07:58:31.477Z,100.00
2023-03-13T08:00:58.467Z,100.00
2023-03-13T08:03:26.283Z,100.00
2023-03-13T08:06:04.671Z,100.00
2023-03-13T08:08:31.385Z,100.00
2023-03-13T08:11:06.548Z,100.00
2023-03-13T08:13:34.330Z,100.00
2023-03-13T08:16:03.944Z,100.00
2023-03-13T08:18:34.820Z,100.00
2023-03-13T08:21:06.873Z,100.00
2023-03-13T08:23:34.324Z,100.00
2023-03-13T08:26:08.868Z,100.00
2023-03-13T08:28:36.864Z,100.00
2023-03-13T08:31:15.703Z,100.00
2023-03-13T08:33:44.224Z,100.00
2023-03-13T08:36:21.945Z,100.00
2023-03-13T08:38:49.236Z,100.00
2023-03-13T08:41:22.763Z,100.00
2023-03-13T08:43:52.046Z,100.00
2023-03-13T08:46:19.846Z,100.00
2023-03-13T08:48:54.633Z,100.00
2023-03-13T08:51:24.786Z,100.00
2023-03-13T08:53:52.674Z,100.00
2023-03-13T08:56:21.754Z,100.00
2023-03-13T08:58:56.822Z,100.00
2023-03-13T09:01:25.975Z,100.00
2023-03-13T09:03:53.008Z,100.00
2023-03-13T09:06:20.033Z,100.00
2023-03-13T09:08:46.989Z,100.00
2023-03-13T09:11:22.557Z,100.00
2023-03-13T09:13:51.448Z,100.00
2023-03-13T09:16:21.006Z,100.00
2023-03-13T09:18:48.112Z,100.00
2023-03-13T09:21:23.345Z,100.00
2023-03-13T09:23:51.124Z,98.19
2023-03-13T09:26:22.819Z,95.12
2023-03-13T09:28:51.158Z,91.88
2023-03-13T09:31:21.706Z,87.68
2023-03-13T09:33:50.435Z,76.61
2023-03-13T09:36:21.517Z,80.06
2023-03-13T09:38:48.715Z,79.29
2023-03-13T09:41:18.530Z,77.49
2023-03-13T09:44:10.001Z,77.67
2023-03-13T09:46:57.472Z,74.58
2023-03-13T09:49:30.411Z,75.39
2023-03-13T09:52:12.002Z,75.39
2023-03-13T09:54:43.257Z,73.99
2023-03-13T09:57:31.747Z,66.91
2023-03-13T10:00:06.851Z,66.73
2023-03-13T10:02:37.662Z,64.39
2023-03-13T10:05:22.031Z,64.46
2023-03-13T10:07:49.163Z,65.08
2023-03-13T10:10:21.392Z,65.08
2023-03-13T10:12:52.516Z,64.51
2023-03-13T10:15:33.977Z,62.04
2023-03-13T10:18:14.134Z,57.42
2023-03-13T10:20:41.827Z,61.13
2023-03-13T10:23:27.762Z,57.10
2023-03-13T10:25:54.632Z,55.61
2023-03-13T10:28:22.841Z,52.26
2023-03-13T10:30:54.426Z,53.36
2023-03-13T10:33:25.658Z,52.42
2023-03-13T10:36:12.526Z,51.65
2023-03-13T10:38:53.393Z,53.47
2023-03-13T10:41:31.075Z,51.79
2023-03-13T10:44:03.400Z,49.51
2023-03-13T10:46:33.042Z,49.69
2023-03-13T10:49:05.205Z,49.50
2023-03-13T10:51:38.700Z,52.14
2023-03-13T10:54:21.999Z,54.97
2023-03-13T10:56:49.914Z,51.59
2023-03-13T10:59:27.396Z,52.74
2023-03-13T11:02:00.490Z,52.07
2023-03-13T11:04:35.604Z,52.30
2023-03-13T11:07:06.458Z,43.16
2023-03-13T11:09:33.412Z,43.76
2023-03-13T11:12:20.936Z,43.36
2023-03-13T11:14:47.764Z,44.75
2023-03-13T11:17:40.264Z,45.46
2023-03-13T11:20:27.190Z,44.72
2023-03-13T11:23:14.178Z,44.82
2023-03-13T11:25:50.130Z,43.88
2023-03-13T11:28:48.812Z,39.56
2023-03-13T11:31:23.089Z,39.74
2023-03-13T11:34:05.608Z,38.28
2023-03-13T11:36:53.379Z,40.48
2023-03-13T11:39:38.796Z,42.82
2023-03-13T11:42:27.125Z,40.56
2023-03-13T11:45:04.583Z,39.81
2023-03-13T11:47:42.847Z,40.93
2023-03-13T11:50:19.351Z,39.46
2023-03-13T11:53:07.219Z,38.80
2023-03-13T11:55:58.812Z,37.27
2023-03-13T11:58:43.954Z,38.56
2023-03-13T12:01:13.871Z,39.41
2023-03-13T12:03:59.268Z,38.83
2023-03-13T12:06:59.761Z,39.83
2023-03-13T12:09:59.293Z,42.06
2023-03-13T12:12:42.118Z,39.22
2023-03-13T12:15:11.844Z,41.95
2023-03-13T12:18:17.349Z,38.70
2023-03-13T12:20:58.589Z,37.68
2023-03-13T12:24:10.575Z,36.49
2023-03-13T12:26:49.615Z,36.80
2023-03-13T12:29:35.520Z,36.83
2023-03-13T12:32:39.393Z,37.58
2023-03-13T12:35:21.843Z,37.38
2023-03-13T12:38:00.980Z,36.98
2023-03-13T12:40:39.081Z,37.88
2023-03-13T12:43:08.573Z,36.31
2023-03-13T12:45:38.481Z,37.73
2023-03-13T12:48:23.962Z,35.98
2023-03-13T12:51:26.021Z,36.27
2023-03-13T12:54:15.879Z,36.05
2023-03-13T12:57:21.660Z,35.15
2023-03-13T13:00:00.395Z,32.99
2023-03-13T13:02:30.453Z,34.55
2023-03-13T13:05:00.294Z,34.17
2023-03-13T13:07:29.578Z,31.76
2023-03-13T13:10:16.522Z,33.08
2023-03-13T13:13:07.708Z,33.30
2023-03-13T13:15:35.019Z,31.92
2023-03-13T13:18:15.022Z,32.80
2023-03-13T13:20:47.070Z,33.57
2023-03-13T13:23:25.978Z,33.69
2023-03-13T13:25:55.609Z,34.05
2023-03-13T13:28:27.598Z,34.22
2023-03-13T13:30:56.675Z,33.85
2023-03-13T13:33:28.272Z,34.13
2023-03-13T13:36:10.406Z,33.74
2023-03-13T13:38:41.163Z,33.34
2023-03-13T13:41:10.622Z,33.07
2023-03-13T13:43:42.474Z,32.45
2023-03-13T13:46:34.091Z,33.31
2023-03-13T13:49:07.570Z,31.16
2023-03-13T13:51:39.036Z,31.82
2023-03-13T13:54:32.364Z,30.17
2023-03-13T13:57:12.784Z,29.66
2023-03-13T13:59:43.468Z,30.33
2023-03-13T14:02:10.983Z,30.50
2023-03-13T14:04:57.684Z,30.78
2023-03-13T14:07:32.502Z,31.51
2023-03-13T14:10:21.535Z,32.63
2023-03-13T14:13:00.167Z,32.93
2023-03-13T14:15:32.735Z,31.52
2023-03-13T14:18:10.055Z,32.56
2023-03-13T14:20:37.674Z,31.84
2023-03-13T14:23:09.789Z,32.97
2023-03-13T14:25:42.910Z,33.31
2023-03-13T14:28:27.831Z,31.98
2023-03-13T14:30:58.150Z,31.45
2023-03-13T14:33:29.472Z,32.45
2023-03-13T14:35:57.983Z,32.07
2023-03-13T14:38:27.381Z,33.12
2023-03-13T14:40:58.407Z,34.88
2023-03-13T14:43:27.955Z,33.97
2023-03-13T14:45:55.205Z,32.92
2023-03-13T14:48:29.821Z,34.94
2023-03-13T14:51:14.828Z,33.71
2023-03-13T14:53:54.368Z,33.39
2023-03-13T14:56:21.173Z,34.99
2023-03-13T14:58:48.810Z,33.76
2023-03-13T15:01:26.285Z,34.62
2023-03-13T15:03:53.129Z,35.20
2023-03-13T15:06:21.393Z,34.90
2023-03-13T15:09:17.839Z,34.75
2023-03-13T15:12:01.441Z,35.21
2023-03-13T15:14:37.737Z,35.58
2023-03-13T15:17:10.347Z,36.71
2023-03-13T15:19:37.098Z,36.94
2023-03-13T15:22:04.049Z,37.07
2023-03-13T15:24:30.925Z,37.40
2023-03-13T15:26:57.497Z,35.58
2023-03-13T15:29:24.419Z,37.16
2023-03-13T15:31:51.172Z,36.18
2023-03-13T15:34:17.889Z,36.37
2023-03-13T15:36:44.615Z,36.73
2023-03-13T15:39:16.823Z,35.71
2023-03-13T15:41:43.581Z,35.59
2023-03-13T15:44:10.419Z,36.22
2023-03-13T15:46:37.376Z,37.61
2023-03-13T15:49:04.135Z,37.18
2023-03-13T15:51:33.099Z,38.77
2023-03-13T15:53:59.905Z,38.22
2023-03-13T15:56:31.513Z,37.31
2023-03-13T15:58:58.441Z,37.86
2023-03-13T16:01:25.045Z,36.90
2023-03-13T16:03:51.925Z,39.05
2023-03-13T16:06:28.195Z,39.14
2023-03-13T16:08:54.937Z,38.32
2023-03-13T16:11:21.854Z,43.52
2023-03-13T16:13:48.623Z,42.23
2023-03-13T16:16:22.745Z,40.42
2023-03-13T16:18:51.238Z,40.23
2023-03-13T16:21:27.182Z,46.21
2023-03-13T16:23:54.587Z,43.36
2023-03-13T16:26:27.010Z,46.02
2023-03-13T16:28:55.144Z,51.68
2023-03-13T16:31:27.654Z,50.78
2023-03-13T16:33:55.848Z,47.98
2023-03-13T16:36:24.796Z,50.36
2023-03-13T16:38:52.628Z,51.81
2023-03-13T16:41:23.090Z,56.04
2023-03-13T16:43:50.727Z,57.76
2023-03-13T16:46:23.322Z,52.94
2023-03-13T16:48:51.109Z,50.79
2023-03-13T16:51:20.982Z,51.56
2023-03-13T16:53:49.864Z,63.33
2023-03-13T16:56:28.371Z,68.61
2023-03-13T16:58:56.702Z,63.44
2023-03-13T17:01:29.098Z,56.98
2023-03-13T17:04:00.193Z,67.95
2023-03-13T17:06:27.928Z,66.45
2023-03-13T17:08:56.245Z,63.71
2023-03-13T17:11:23.666Z,59.97
2023-03-13T17:13:52.362Z,56.82
2023-03-13T17:16:25.677Z,58.16
2023-03-13T17:18:53.796Z,59.53
2023-03-13T17:21:24.681Z,59.93
2023-03-13T17:23:51.955Z,66.90
2023-03-13T17:26:24.202Z,71.02
2023-03-13T17:28:54.113Z,72.60
2023-03-13T17:31:22.398Z,71.18
2023-03-13T17:33:50.555Z,75.63
2023-03-13T17:36:23.476Z,77.84
2023-03-13T17:38:57.871Z,80.50
2023-03-13T17:41:27.595Z,77.03
2023-03-13T17:43:54.808Z,77.64
2023-03-13T17:46:29.974Z,79.45
2023-03-13T17:48:57.480Z,80.90
2023-03-13T17:51:30.096Z,76.07
2023-03-13T17:54:00.845Z,73.71
2023-03-13T17:56:31.030Z,72.38
2023-03-13T17:59:00.196Z,71.95
2023-03-13T18:01:29.728Z,74.21
2023-03-13T18:04:00.350Z,75.17
2023-03-13T18:06:28.601Z,85.69
2023-03-13T18:08:57.668Z,82.62
2023-03-13T18:11:25.929Z,90.08
2023-03-13T18:13:52.787Z,79.95
2023-03-13T18:16:47.702Z,76.07
2023-03-13T18:19:22.474Z,73.39
2023-03-13T18:21:51.842Z,73.04
2023-03-13T18:24:18.875Z,73.82
2023-03-13T18:26:46.972Z,72.52
2023-03-13T18:29:20.220Z,73.88
2023-03-13T18:31:48.189Z,74.55
2023-03-13T18:34:15.355Z,73.61
2023-03-13T18:36:42.313Z,72.14
2023-03-13T18:39:14.742Z,72.13
2023-03-13T18:41:41.716Z,71.48
2023-03-13T18:44:08.539Z,70.30
2023-03-13T18:46:36.514Z,70.45
2023-03-13T18:49:13.343Z,71.35
2023-03-13T18:51:40.222Z,73.77
2023-03-13T18:54:06.911Z,74.70
2023-03-13T18:56:34.404Z,77.03
2023-03-13T18:59:02.423Z,78.93
2023-03-13T19:01:30.806Z,80.82
2023-03-13T19:04:00.161Z,81.60
2023-03-13T19:06:30.527Z,83.09
2023-03-13T19:09:02.243Z,85.87
2023-03-13T19:11:31.677Z,86.25
2023-03-13T19:13:59.125Z,88.17
2023-03-13T19:16:31.573Z,95.94
2023-03-13T19:18:58.492Z,91.33
2023-03-13T19:21:28.407Z,92.18
2023-03-13T19:23:55.751Z,87.77
2023-03-13T19:26:41.773Z,89.73
2023-03-13T19:29:17.226Z,87.15
2023-03-13T19:31:44.496Z,87.96
2023-03-13T19:34:11.396Z,87.45
2023-03-13T19:36:41.783Z,86.53
2023-03-13T19:39:21.846Z,88.02
2023-03-13T19:41:48.679Z,87.68
2023-03-13T19:44:17.613Z,87.78
2023-03-13T19:46:44.980Z,86.16
2023-03-13T19:49:17.082Z,86.88
2023-03-13T19:51:43.953Z,88.89
2023-03-13T19:54:11.871Z,88.19
2023-03-13T19:56:44.082Z,88.42
2023-03-13T19:59:26.688Z,90.76
2023-03-13T20:01:55.782Z,92.43
2023-03-13T20:04:22.719Z,93.75
2023-03-13T20:06:49.427Z,93.04
2023-03-13T20:09:17.837Z,95.43
2023-03-13T20:11:44.881Z,96.58
2023-03-13T20:14:11.773Z,95.95
2023-03-13T20:16:39.317Z,100.00
2023-03-13T20:19:06.298Z,98.97
2023-03-13T20:21:36.086Z,99.68
2023-03-13T20:24:03.591Z,99.03
2023-03-13T20:26:30.911Z,100.00
2023-03-13T20:28:57.778Z,99.66
2023-03-13T20:31:28.027Z,99.77
2023-03-13T20:33:55.835Z,99.22
2023-03-13T20:36:23.370Z,99.05
2023-03-13T20:38:50.255Z,100.00
2023-03-13T20:41:17.156Z,100.00
2023-03-13T20:43:43.955Z,100.00
2023-03-13T20:46:11.048Z,100.00
2023-03-13T20:48:39.642Z,100.00
2023-03-13T20:51:08.112Z,100.00
2023-03-13T20:53:39.075Z,100.00
2023-03-13T20:56:07.339Z,100.00
2023-03-13T20:58:35.377Z,100.00
2023-03-13T21:01:03.533Z,100.00
2023-03-13T21:03:35.709Z,99.95
2023-03-13T21:06:17.738Z,99.96
2023-03-13T21:08:47.112Z,100.00
2023-03-13T21:11:22.298Z,98.90
2023-03-13T21:13:50.320Z,100.00
2023-03-13T21:16:19.018Z,100.00
2023-03-13T21:18:46.296Z,100.00
2023-03-13T21:21:18.659Z,100.00
2023-03-13T21:23:46.574Z,100.00
2023-03-13T21:26:14.334Z,100.00
2023-03-13T21:28:43.677Z,100.00
2023-03-13T21:31:15.960Z,100.00
2023-03-13T21:33:45.310Z,100.00
2023-03-13T21:36:14.016Z,100.00
2023-03-13T21:38:41.038Z,100.00
2023-03-13T21:41:13.418Z,100.00
2023-03-13T21:43:41.939Z,99.15
2023-03-13T21:46:16.783Z,98.23
2023-03-13T21:51:14.906Z,98.37
2023-03-13T21:53:44.558Z,97.61
2023-03-13T21:56:15.346Z,97.39
2023-03-13T21:58:43.099Z,97.87
2023-03-13T22:01:10.018Z,98.50
2023-03-13T22:03:37.062Z,99.74
2023-03-13T22:06:04.389Z,100.00
2023-03-13T22:08:31.112Z,100.00
2023-03-13T22:10:59.884Z,100.00
2023-03-13T22:13:26.812Z,100.00
2023-03-13T22:15:53.608Z,100.00
2023-03-13T22:18:20.430Z,100.00
2023-03-13T22:20:47.187Z,100.00
2023-03-13T22:23:14.057Z,100.00
2023-03-13T22:25:45.908Z,100.00
2023-03-13T22:28:12.616Z,100.00
2023-03-13T22:30:39.791Z,100.00
2023-03-13T22:33:07.052Z,100.00
2023-03-13T22:35:37.761Z,98.74
2023-03-13T22:38:05.219Z,97.61
2023-03-13T22:40:32.385Z,94.68
2023-03-13T22:42:59.021Z,91.77
2023-03-13T22:45:26.186Z,89.21
2023-03-13T22:47:53.837Z,87.76
2023-03-13T22:50:25.586Z,87.34
2023-03-13T22:52:54.528Z,85.93
2023-03-13T22:55:21.267Z,85.96
2023-03-13T22:57:47.970Z,86.27
2023-03-13T23:00:15.542Z,86.89
2023-03-13T23:02:42.314Z,88.46
2023-03-13T23:05:09.725Z,91.20
2023-03-13T23:07:40.439Z,91.81
2023-03-13T23:10:09.430Z,93.36
2023-03-13T23:12:36.212Z,93.38
2023-03-13T23:15:03.364Z,95.33
2023-03-13T23:17:31.121Z,95.96
2023-03-13T23:19:57.926Z,97.09
2023-03-13T23:22:29.104Z,97.37
2023-03-13T23:24:55.904Z,97.60
2023-03-13T23:27:22.735Z,98.37
2023-03-13T23:29:51.696Z,98.77
2023-03-13T23:32:18.439Z,98.36
2023-03-13T23:34:45.279Z,99.58
2023-03-13T23:37:11.999Z,99.66
2023-03-13T23:39:38.742Z,99.31
2023-03-13T23:42:07.180Z,98.73
2023-03-13T23:44:33.918Z,98.83
2023-03-13T23:47:01.132Z,97.65
2023-03-13T23:49:27.701Z,98.13
2023-03-13T23:51:54.451Z,96.78
2023-03-13T23:54:21.490Z,100.00
2023-03-13T23:56:48.224Z,100.00
2023-03-13T23:59:14.919Z,100.00
